Caarapo, Brazil
Current Conditions -  °F | °C
As of 2:00 PM on Monday 22 Dec 2014 (Local Time) from SBPP Reporting Station
Haze Haze  
Wind Chill: 68°   Ceiling: 300
Heat Index: 68°   Visibility: 1.8mi
Dew Point: 66°   Wind: 0mph
Humidity: 94%   Direction: NA
Pressure: 29.94"   Gusts: NA
Location:  22.63°S, 54.82°W
Report Text: SBPP 221700Z 00000KT 3000 BR OVC003 20/19 Q1014
Loading
Personal Weather Stations






























Interactive Weather Map New forecast layout! Learn more

10-Day Weather Forecast

Advertisements
Track Severe Weather on mobile